createdAt,value
2023-03-18T00:00:25.547Z,16.88
2023-03-18T00:02:52.659Z,17.20
2023-03-18T00:05:20.211Z,15.80
2023-03-18T00:07:47.551Z,17.48
2023-03-18T00:10:14.121Z,17.77
2023-03-18T00:12:41.413Z,16.48
2023-03-18T00:15:10.722Z,16.20
2023-03-18T00:17:37.840Z,18.08
2023-03-18T00:20:06.889Z,15.10
2023-03-18T00:22:34.656Z,14.65
2023-03-18T00:25:02.138Z,15.95
2023-03-18T00:27:28.957Z,16.13
2023-03-18T00:29:56.064Z,15.98
2023-03-18T00:32:23.125Z,19.30
2023-03-18T00:34:50.665Z,15.50
2023-03-18T00:37:30.051Z,16.77
2023-03-18T00:40:07.780Z,16.15
2023-03-18T00:42:47.466Z,15.75
2023-03-18T00:45:16.157Z,15.30
2023-03-18T00:47:43.655Z,14.52
2023-03-18T00:50:11.547Z,12.38
2023-03-18T00:52:38.121Z,16.77
2023-03-18T00:55:05.325Z,15.18
2023-03-18T00:57:31.858Z,13.60
2023-03-18T00:59:59.280Z,13.43
2023-03-18T01:02:26.444Z,14.90
2023-03-18T01:04:53.281Z,14.25
2023-03-18T01:07:19.816Z,15.90
2023-03-18T01:09:46.734Z,12.07
2023-03-18T01:12:13.620Z,13.65
2023-03-18T01:14:41.123Z,15.30
2023-03-18T01:17:09.005Z,16.08
2023-03-18T01:19:36.538Z,13.02
2023-03-18T01:22:03.872Z,13.88
2023-03-18T01:24:30.783Z,13.70
2023-03-18T01:26:58.177Z,12.55
2023-03-18T01:29:25.175Z,14.65
2023-03-18T01:31:51.749Z,12.88
2023-03-18T01:34:18.885Z,14.32
2023-03-18T01:36:46.428Z,15.73
2023-03-18T01:39:12.973Z,11.80
2023-03-18T01:41:40.222Z,13.23
2023-03-18T01:44:23.231Z,14.10
2023-03-18T01:46:51.394Z,13.43
2023-03-18T01:49:22.079Z,13.20
2023-03-18T01:51:57.705Z,12.93
2023-03-18T01:54:26.303Z,13.57
2023-03-18T01:56:53.918Z,11.60
2023-03-18T01:59:23.928Z,11.15
2023-03-18T02:01:56.217Z,11.68
2023-03-18T02:04:27.529Z,11.73
2023-03-18T02:06:54.101Z,13.18
2023-03-18T02:09:20.663Z,11.68
2023-03-18T02:11:51.686Z,11.35
2023-03-18T02:14:24.910Z,11.00
2023-03-18T02:17:01.089Z,11.80
2023-03-18T02:19:58.331Z,12.05
2023-03-18T02:22:47.355Z,12.43
2023-03-18T02:25:31.932Z,11.85
2023-03-18T02:28:03.435Z,10.07
2023-03-18T02:30:37.670Z,10.48
2023-03-18T02:33:05.177Z,10.70
2023-03-18T02:35:32.740Z,11.65
2023-03-18T02:37:59.314Z,10.65
2023-03-18T02:40:37.046Z,10.27
2023-03-18T02:43:19.414Z,12.32
2023-03-18T02:46:22.096Z,10.80
2023-03-18T02:48:49.896Z,10.48
2023-03-18T02:51:17.302Z,11.48
2023-03-18T02:53:43.996Z,11.57
2023-03-18T02:56:11.138Z,10.05
2023-03-18T02:58:38.126Z,10.02
2023-03-18T03:01:08.159Z,9.90
2023-03-18T03:03:35.704Z,8.43
2023-03-18T03:06:03.304Z,8.40
2023-03-18T03:08:30.484Z,11.20
2023-03-18T03:10:57.540Z,10.82
2023-03-18T03:13:24.888Z,11.18
2023-03-18T03:15:51.810Z,8.68
2023-03-18T03:18:18.535Z,11.05
2023-03-18T03:20:45.657Z,9.77
2023-03-18T03:23:15.612Z,8.88
2023-03-18T03:25:44.798Z,9.00
2023-03-18T03:28:13.465Z,9.73
2023-03-18T03:30:40.560Z,10.02
2023-03-18T03:33:07.186Z,8.73
2023-03-18T03:35:34.525Z,8.65
2023-03-18T03:38:01.085Z,8.63
2023-03-18T03:40:28.421Z,9.43
2023-03-18T03:42:54.976Z,8.48
2023-03-18T03:45:21.715Z,8.30
2023-03-18T03:47:48.337Z,8.90
2023-03-18T03:50:17.052Z,8.50
2023-03-18T03:52:44.500Z,7.32
2023-03-18T03:55:13.312Z,8.60
2023-03-18T03:57:41.858Z,9.13
2023-03-18T04:00:14.340Z,8.82
2023-03-18T04:02:43.461Z,11.48
2023-03-18T04:05:11.882Z,8.93
2023-03-18T04:07:39.571Z,9.10
2023-03-18T04:10:09.446Z,7.95
2023-03-18T04:12:36.507Z,10.68
2023-03-18T04:15:03.332Z,9.52
2023-03-18T04:17:30.129Z,10.30
2023-03-18T04:19:56.738Z,10.13
2023-03-18T04:22:24.062Z,8.73
2023-03-18T04:24:50.874Z,10.10
2023-03-18T04:27:18.517Z,8.23
2023-03-18T04:29:45.293Z,7.78
2023-03-18T04:32:11.860Z,7.35
2023-03-18T04:34:38.611Z,7.63
2023-03-18T04:37:05.166Z,8.93
2023-03-18T04:39:31.674Z,7.57
2023-03-18T04:41:58.347Z,8.15
2023-03-18T04:44:25.456Z,8.60
2023-03-18T04:46:53.638Z,7.05
2023-03-18T04:49:21.309Z,7.20
2023-03-18T04:51:47.836Z,8.15
2023-03-18T04:54:14.325Z,8.68
2023-03-18T04:56:41.376Z,7.47
2023-03-18T04:59:07.893Z,6.00
2023-03-18T05:01:34.924Z,7.82
2023-03-18T05:04:02.155Z,5.55
2023-03-18T05:06:31.701Z,6.88
2023-03-18T05:08:58.866Z,6.90
2023-03-18T05:11:26.749Z,7.07
2023-03-18T05:13:53.406Z,5.53
2023-03-18T05:16:20.014Z,8.75
2023-03-18T05:18:46.889Z,6.43
2023-03-18T05:21:13.459Z,5.88
2023-03-18T05:23:39.942Z,6.55
2023-03-18T05:26:06.656Z,8.05
2023-03-18T05:28:34.171Z,6.35
2023-03-18T05:31:00.703Z,6.70
2023-03-18T05:33:27.423Z,5.07
2023-03-18T05:35:54.013Z,5.03
2023-03-18T05:38:20.651Z,6.47
2023-03-18T05:40:47.303Z,6.72
2023-03-18T05:43:13.961Z,6.50
2023-03-18T05:45:41.017Z,6.05
2023-03-18T05:48:08.177Z,7.32
2023-03-18T05:50:38.204Z,5.03
2023-03-18T05:53:06.545Z,5.85
2023-03-18T05:55:33.782Z,5.75
2023-03-18T05:58:00.829Z,6.82
2023-03-18T06:00:31.338Z,6.10
2023-03-18T06:02:59.482Z,4.82
2023-03-18T06:05:27.177Z,5.32
2023-03-18T06:07:54.784Z,5.03
2023-03-18T06:10:23.024Z,5.03
2023-03-18T06:12:50.614Z,5.03
2023-03-18T06:15:18.777Z,5.35
2023-03-18T06:17:45.587Z,6.55
2023-03-18T06:20:14.183Z,6.15
2023-03-18T06:22:41.049Z,3.35
2023-03-18T06:25:08.265Z,5.47
2023-03-18T06:27:35.694Z,6.10
2023-03-18T06:30:04.634Z,4.95
2023-03-18T06:32:33.028Z,5.45
2023-03-18T06:35:00.268Z,6.05
2023-03-18T06:37:26.824Z,4.30
2023-03-18T06:39:53.612Z,5.53
2023-03-18T06:42:20.302Z,4.88
2023-03-18T06:44:50.737Z,5.13
2023-03-18T06:47:22.220Z,4.35
2023-03-18T06:49:49.610Z,5.20
2023-03-18T06:52:17.224Z,3.58
2023-03-18T06:54:44.673Z,3.67
2023-03-18T06:57:12.047Z,6.03
2023-03-18T06:59:39.358Z,6.25
2023-03-18T07:02:06.104Z,7.63
2023-03-18T07:04:33.895Z,4.03
2023-03-18T07:07:00.567Z,5.03
2023-03-18T07:09:28.328Z,4.38
2023-03-18T07:11:54.959Z,4.90
2023-03-18T07:14:21.716Z,4.15
2023-03-18T07:16:48.264Z,4.38
2023-03-18T07:19:16.223Z,4.38
2023-03-18T07:21:43.786Z,3.85
2023-03-18T07:24:11.365Z,3.97
2023-03-18T07:26:38.426Z,4.32
2023-03-18T07:29:05.476Z,4.47
2023-03-18T07:31:32.083Z,4.30
2023-03-18T07:33:59.170Z,3.85
2023-03-18T07:36:26.746Z,6.22
2023-03-18T07:38:53.591Z,4.32
2023-03-18T07:41:20.172Z,5.07
2023-03-18T07:43:46.727Z,4.32
2023-03-18T07:46:13.312Z,6.25
2023-03-18T07:48:39.911Z,5.85
2023-03-18T07:51:06.814Z,8.65
2023-03-18T07:53:34.020Z,5.95
2023-03-18T07:56:00.770Z,5.43
2023-03-18T07:58:27.376Z,4.55
2023-03-18T08:00:54.276Z,6.45
2023-03-18T08:03:21.157Z,7.50
2023-03-18T08:05:47.774Z,5.13
2023-03-18T08:08:14.271Z,6.00
2023-03-18T08:10:40.807Z,4.85
2023-03-18T08:13:07.304Z,5.25
2023-03-18T08:15:34.612Z,5.43
2023-03-18T08:18:01.716Z,7.28
2023-03-18T08:20:28.774Z,6.57
2023-03-18T08:22:56.017Z,7.70
2023-03-18T08:25:23.628Z,7.28
2023-03-18T08:27:50.842Z,6.63
2023-03-18T08:30:17.589Z,6.30
2023-03-18T08:32:44.402Z,9.75
2023-03-18T08:35:12.723Z,9.68
2023-03-18T08:37:39.294Z,9.50
2023-03-18T08:40:06.518Z,11.05
2023-03-18T08:42:33.069Z,11.45
2023-03-18T08:44:59.726Z,10.77
2023-03-18T08:47:27.374Z,10.65
2023-03-18T08:49:53.916Z,10.30
2023-03-18T08:52:22.365Z,11.63
2023-03-18T08:54:49.286Z,8.45
2023-03-18T08:57:16.039Z,9.25
2023-03-18T08:59:42.632Z,8.40
2023-03-18T09:02:16.861Z,9.90
2023-03-18T09:04:44.082Z,7.95
2023-03-18T09:07:11.576Z,9.15
2023-03-18T09:09:43.686Z,8.00
2023-03-18T09:12:12.575Z,9.32
2023-03-18T09:14:40.415Z,10.13
2023-03-18T09:17:06.959Z,8.90
2023-03-18T09:19:33.546Z,8.63
2023-03-18T09:22:00.129Z,9.93
2023-03-18T09:24:26.799Z,10.25
2023-03-18T09:26:53.418Z,9.13
2023-03-18T09:29:19.969Z,9.48
2023-03-18T09:31:46.975Z,9.32
2023-03-18T09:34:14.506Z,8.60
2023-03-18T09:36:42.170Z,10.50
2023-03-18T09:39:10.041Z,9.30
2023-03-18T09:41:51.337Z,8.63
2023-03-18T09:44:24.881Z,10.60
2023-03-18T09:47:18.718Z,9.77
2023-03-18T09:50:27.640Z,8.52
2023-03-18T09:53:09.864Z,9.82
2023-03-18T09:55:53.090Z,8.82
2023-03-18T09:58:46.571Z,10.50
2023-03-18T10:01:14.001Z,9.13
2023-03-18T10:03:51.211Z,7.88
2023-03-18T10:06:20.802Z,9.25
2023-03-18T10:08:57.059Z,8.63
2023-03-18T10:11:34.126Z,10.18
2023-03-18T10:14:23.630Z,9.65
2023-03-18T10:17:16.218Z,9.05
2023-03-18T10:19:48.219Z,9.18
2023-03-18T10:22:38.132Z,7.50
2023-03-18T10:25:35.336Z,9.73
2023-03-18T10:28:02.034Z,9.48
2023-03-18T10:30:39.144Z,9.95
2023-03-18T10:33:05.734Z,10.43
2023-03-18T10:35:59.383Z,7.50
2023-03-18T10:38:32.081Z,9.25
2023-03-18T10:40:59.055Z,9.25
2023-03-18T10:43:29.822Z,9.00
2023-03-18T10:46:07.454Z,9.15
2023-03-18T10:48:45.943Z,8.40
2023-03-18T10:51:31.427Z,7.80
2023-03-18T10:54:15.731Z,7.80
2023-03-18T10:56:42.974Z,56.33
2023-03-18T10:59:16.342Z,56.63
2023-03-18T11:01:54.151Z,55.90
2023-03-18T11:04:23.771Z,55.53
2023-03-18T11:06:59.487Z,43.00
2023-03-18T11:09:37.168Z,40.45
2023-03-18T11:12:15.090Z,39.20
2023-03-18T11:14:48.125Z,27.52
2023-03-18T11:17:23.799Z,34.80
2023-03-18T11:20:00.857Z,30.73
2023-03-18T11:22:28.081Z,21.83
2023-03-18T11:25:23.498Z,25.73
2023-03-18T11:27:52.423Z,17.95
2023-03-18T11:30:41.078Z,33.53
2023-03-18T11:33:10.773Z,21.77
2023-03-18T11:35:47.301Z,26.63
2023-03-18T11:38:26.052Z,27.73
2023-03-18T11:40:52.907Z,24.13
2023-03-18T11:43:25.504Z,21.08
2023-03-18T11:46:01.895Z,18.33
2023-03-18T11:48:28.441Z,20.33
2023-03-18T11:51:25.158Z,18.00
2023-03-18T11:54:05.028Z,18.38
2023-03-18T11:56:54.273Z,20.88
2023-03-18T11:59:46.285Z,19.08
2023-03-18T12:02:20.688Z,23.33
2023-03-18T12:04:53.750Z,20.52
2023-03-18T12:07:32.563Z,18.08
2023-03-18T12:10:16.295Z,20.73
2023-03-18T12:13:01.930Z,17.77
2023-03-18T12:15:34.721Z,15.73
2023-03-18T12:18:25.909Z,15.53
2023-03-18T12:21:06.851Z,15.23
2023-03-18T12:23:58.000Z,11.38
2023-03-18T12:26:38.204Z,14.68
2023-03-18T12:29:11.357Z,12.15
2023-03-18T12:31:56.088Z,12.10
2023-03-18T12:34:34.241Z,14.35
2023-03-18T12:37:22.118Z,11.85
2023-03-18T12:40:18.430Z,11.43
2023-03-18T12:43:23.107Z,11.32
2023-03-18T12:45:53.768Z,12.20
2023-03-18T12:48:43.231Z,12.43
2023-03-18T12:51:18.417Z,12.18
2023-03-18T12:53:50.182Z,15.27
2023-03-18T12:56:21.477Z,10.82
2023-03-18T12:58:50.401Z,11.00
2023-03-18T13:01:38.911Z,10.40
2023-03-18T13:04:11.935Z,10.45
2023-03-18T13:06:46.037Z,10.68
2023-03-18T13:09:26.797Z,14.13
2023-03-18T13:12:15.265Z,14.48
2023-03-18T13:15:20.631Z,11.00
2023-03-18T13:17:51.373Z,10.27
2023-03-18T13:20:26.707Z,10.50
2023-03-18T13:23:11.098Z,8.32
2023-03-18T13:26:01.904Z,9.68
2023-03-18T13:28:34.031Z,11.70
2023-03-18T13:31:34.449Z,8.88
2023-03-18T13:34:17.064Z,9.68
2023-03-18T13:37:17.611Z,10.80
2023-03-18T13:40:13.179Z,12.07
2023-03-18T13:42:41.279Z,7.72
2023-03-18T13:45:28.731Z,9.70
2023-03-18T13:47:59.298Z,9.32
2023-03-18T13:50:39.699Z,8.32
2023-03-18T13:53:22.362Z,5.63
2023-03-18T13:55:53.405Z,8.73
2023-03-18T13:58:29.822Z,10.40
2023-03-18T14:00:56.869Z,8.35
2023-03-18T14:03:42.625Z,7.72
2023-03-18T14:06:09.190Z,11.82
2023-03-18T14:08:45.476Z,7.30
2023-03-18T14:11:19.719Z,7.75
2023-03-18T14:14:02.979Z,7.25
2023-03-18T14:16:49.740Z,5.82
2023-03-18T14:19:24.186Z,6.70
2023-03-18T14:22:06.076Z,6.57
2023-03-18T14:24:33.156Z,6.95
2023-03-18T14:26:59.581Z,6.88
2023-03-18T14:29:31.068Z,4.90
2023-03-18T14:32:08.353Z,6.03
2023-03-18T14:34:54.998Z,6.80
2023-03-18T14:37:32.609Z,7.93
2023-03-18T14:40:06.230Z,5.35
2023-03-18T14:45:07.019Z,6.13
2023-03-18T14:47:41.869Z,6.95
2023-03-18T14:50:28.595Z,6.85
2023-03-18T14:53:20.775Z,5.38
2023-03-18T14:55:47.960Z,6.95
2023-03-18T14:58:17.397Z,6.63
2023-03-18T15:00:46.260Z,5.90
2023-03-18T15:03:23.533Z,4.22
2023-03-18T15:05:54.664Z,3.95
2023-03-18T15:08:28.071Z,5.13
2023-03-18T15:11:05.838Z,6.82
2023-03-18T15:13:33.367Z,5.47
2023-03-18T15:16:04.163Z,4.45
2023-03-18T15:18:34.418Z,3.90
2023-03-18T15:21:07.184Z,4.75
2023-03-18T15:23:40.151Z,4.43
2023-03-18T15:26:09.773Z,5.82
2023-03-18T15:28:36.609Z,9.18
2023-03-18T15:31:05.745Z,12.80
2023-03-18T15:33:38.167Z,9.80
2023-03-18T15:36:07.286Z,8.52
2023-03-18T15:38:34.219Z,8.40
2023-03-18T15:41:12.085Z,11.05
2023-03-18T15:43:43.945Z,9.63
2023-03-18T15:46:33.065Z,9.18
2023-03-18T15:49:05.483Z,8.60
2023-03-18T15:51:59.346Z,8.85
2023-03-18T15:54:29.907Z,9.27
2023-03-18T15:56:58.790Z,9.32
2023-03-18T15:59:31.150Z,10.00
2023-03-18T16:01:58.879Z,8.43
2023-03-18T16:04:30.160Z,7.00
2023-03-18T16:06:56.823Z,9.00
2023-03-18T16:09:25.059Z,7.38
2023-03-18T16:12:02.304Z,8.38
2023-03-18T16:14:37.522Z,8.68
2023-03-18T16:17:04.042Z,10.05
2023-03-18T16:19:31.019Z,10.35
2023-03-18T16:21:58.780Z,11.73
2023-03-18T16:24:25.960Z,10.88
2023-03-18T16:26:53.795Z,11.02
2023-03-18T16:29:40.646Z,8.93
2023-03-18T16:32:11.592Z,11.35
2023-03-18T16:34:38.734Z,11.65
2023-03-18T16:37:05.294Z,12.52
2023-03-18T16:39:35.104Z,16.80
2023-03-18T16:42:03.176Z,15.70
2023-03-18T16:44:30.541Z,13.98
2023-03-18T16:46:57.616Z,13.63
2023-03-18T16:49:27.043Z,13.95
2023-03-18T16:51:53.902Z,11.40
2023-03-18T16:54:26.442Z,13.18
2023-03-18T16:56:57.444Z,9.77
2023-03-18T16:59:25.052Z,10.82
2023-03-18T17:01:51.878Z,9.45
2023-03-18T17:04:28.562Z,10.20
2023-03-18T17:06:59.773Z,9.38
2023-03-18T17:09:27.556Z,10.52
2023-03-18T17:11:58.262Z,8.15
2023-03-18T17:14:30.062Z,9.07
2023-03-18T17:16:59.338Z,8.85
2023-03-18T17:19:26.510Z,7.93
2023-03-18T17:21:56.421Z,7.40
2023-03-18T17:24:23.294Z,10.85
2023-03-18T17:26:51.567Z,8.38
2023-03-18T17:29:24.115Z,6.85
2023-03-18T17:31:54.554Z,7.65
2023-03-18T17:34:21.448Z,7.57
2023-03-18T17:36:48.642Z,6.90
2023-03-18T17:39:15.569Z,7.15
2023-03-18T17:41:42.804Z,6.80
2023-03-18T17:44:24.529Z,5.75
2023-03-18T17:46:51.165Z,6.20
2023-03-18T17:49:21.645Z,7.18
2023-03-18T17:51:48.857Z,6.82
2023-03-18T17:54:20.677Z,6.65
2023-03-18T17:56:47.895Z,6.40
2023-03-18T17:59:17.029Z,8.35
2023-03-18T18:01:47.204Z,6.53
2023-03-18T18:04:18.677Z,5.70
2023-03-18T18:06:48.102Z,5.43
2023-03-18T18:09:16.518Z,6.40
2023-03-18T18:11:48.907Z,6.60
2023-03-18T18:14:25.035Z,5.07
2023-03-18T18:16:59.501Z,5.80
2023-03-18T18:19:26.075Z,6.43
2023-03-18T18:21:53.241Z,9.52
2023-03-18T18:24:23.780Z,8.45
2023-03-18T18:26:51.136Z,5.00
2023-03-18T18:29:21.626Z,6.22
2023-03-18T18:31:51.535Z,6.60
2023-03-18T18:34:20.113Z,6.63
2023-03-18T18:36:47.855Z,5.40
2023-03-18T18:39:15.263Z,6.40
2023-03-18T18:41:41.922Z,5.32
2023-03-18T18:44:08.550Z,6.13
2023-03-18T18:46:35.953Z,6.00
2023-03-18T18:49:02.697Z,6.53
2023-03-18T18:51:29.350Z,5.47
2023-03-18T18:53:56.028Z,7.50
2023-03-18T18:56:34.451Z,5.07
2023-03-18T18:59:01.998Z,7.80
2023-03-18T19:01:28.515Z,5.93
2023-03-18T19:03:55.571Z,6.28
2023-03-18T19:06:29.419Z,5.53
2023-03-18T19:08:58.138Z,6.57
2023-03-18T19:11:25.764Z,6.47
2023-03-18T19:13:53.626Z,6.45
2023-03-18T19:16:30.680Z,9.63
2023-03-18T19:18:57.905Z,7.90
2023-03-18T19:21:24.436Z,7.32
2023-03-18T19:23:51.208Z,8.77
2023-03-18T19:26:18.563Z,9.25
2023-03-18T19:28:59.297Z,8.02
2023-03-18T19:31:30.637Z,10.35
2023-03-18T19:33:59.475Z,8.68
2023-03-18T19:36:32.232Z,8.55
2023-03-18T19:39:02.061Z,9.63
2023-03-18T19:41:29.503Z,8.90
2023-03-18T19:44:03.823Z,10.70
2023-03-18T19:46:39.393Z,9.65
2023-03-18T19:49:35.292Z,8.77
2023-03-18T19:52:03.045Z,9.40
2023-03-18T19:57:25.011Z,8.38
2023-03-18T19:59:57.291Z,10.18
2023-03-18T20:02:27.259Z,8.88
2023-03-18T20:04:56.510Z,8.60
2023-03-18T20:07:26.094Z,8.75
2023-03-18T20:09:53.654Z,9.68
2023-03-18T20:12:26.448Z,11.30
2023-03-18T20:14:53.292Z,11.27
2023-03-18T20:17:25.822Z,8.75
2023-03-18T20:19:52.413Z,9.90
2023-03-18T20:22:36.537Z,10.00
2023-03-18T20:25:05.333Z,10.68
2023-03-18T20:27:31.938Z,8.40
2023-03-18T20:29:58.672Z,8.90
2023-03-18T20:32:25.278Z,9.38
2023-03-18T20:34:52.057Z,9.02
2023-03-18T20:37:35.968Z,7.82
2023-03-18T20:42:31.779Z,8.50
2023-03-18T20:44:58.330Z,8.82
2023-03-18T20:47:27.781Z,10.30
2023-03-18T20:49:54.802Z,8.52
2023-03-18T20:52:26.619Z,8.07
2023-03-18T20:54:54.310Z,7.25
2023-03-18T20:57:21.041Z,9.63
2023-03-18T20:59:47.761Z,10.60
2023-03-18T21:02:35.342Z,10.68
2023-03-18T21:05:03.142Z,9.50
2023-03-18T21:07:30.203Z,10.60
2023-03-18T21:09:56.800Z,10.93
2023-03-18T21:12:24.248Z,9.60
2023-03-18T21:14:51.153Z,12.02
2023-03-18T21:17:23.758Z,11.18
2023-03-18T21:19:51.682Z,11.43
2023-03-18T21:22:26.062Z,10.73
2023-03-18T21:24:52.854Z,10.63
2023-03-18T21:27:21.678Z,11.48
2023-03-18T21:29:52.352Z,11.30
2023-03-18T21:32:25.696Z,12.32
2023-03-18T21:34:52.653Z,9.50
2023-03-18T21:37:22.184Z,11.80
2023-03-18T21:39:49.496Z,11.48
2023-03-18T21:42:24.291Z,11.10
2023-03-18T21:44:51.529Z,10.35
2023-03-18T21:47:20.877Z,11.77
2023-03-18T21:49:47.949Z,10.57
2023-03-18T21:52:36.102Z,8.95
2023-03-18T21:55:04.440Z,8.80
2023-03-18T21:57:31.241Z,9.38
2023-03-18T21:59:57.775Z,8.52
2023-03-18T22:02:33.288Z,8.93
2023-03-18T22:05:07.661Z,7.95
2023-03-18T22:07:34.188Z,8.48
2023-03-18T22:10:01.134Z,6.88
2023-03-18T22:12:33.212Z,7.85
2023-03-18T22:15:00.719Z,17.38
2023-03-18T22:17:32.604Z,10.27
2023-03-18T22:20:01.394Z,7.45
2023-03-18T22:22:36.954Z,10.27
2023-03-18T22:25:04.345Z,13.30
2023-03-18T22:27:31.845Z,12.63
2023-03-18T22:30:00.055Z,10.18
2023-03-18T22:32:47.096Z,10.95
2023-03-18T22:35:15.404Z,9.40
2023-03-18T22:37:42.639Z,10.13
2023-03-18T22:40:18.968Z,18.08
2023-03-18T22:42:47.649Z,13.90
2023-03-18T22:45:20.022Z,8.02
2023-03-18T22:47:46.583Z,9.38
2023-03-18T22:50:13.239Z,7.32
2023-03-18T22:52:39.781Z,8.07
2023-03-18T22:55:22.891Z,7.50
2023-03-18T22:57:50.205Z,8.83
2023-03-18T23:00:22.954Z,11.90
2023-03-18T23:02:50.627Z,6.40
2023-03-18T23:05:19.860Z,6.55
2023-03-18T23:07:46.616Z,9.43
2023-03-18T23:10:14.037Z,7.57
2023-03-18T23:12:40.699Z,11.10
2023-03-18T23:15:08.231Z,7.28
2023-03-18T23:17:34.805Z,9.48
2023-03-18T23:20:01.418Z,8.65
2023-03-18T23:22:33.863Z,8.10
2023-03-18T23:25:00.633Z,7.68
2023-03-18T23:27:28.282Z,8.88
2023-03-18T23:29:56.199Z,8.15
2023-03-18T23:32:23.864Z,7.72
2023-03-18T23:34:50.480Z,6.95
2023-03-18T23:37:17.587Z,8.15
2023-03-18T23:39:46.124Z,7.00
2023-03-18T23:42:17.684Z,7.28
2023-03-18T23:44:44.752Z,7.55
2023-03-18T23:47:13.024Z,7.68
2023-03-18T23:49:39.838Z,7.65
2023-03-18T23:52:12.552Z,5.75
2023-03-18T23:54:39.699Z,7.55
2023-03-18T23:57:08.734Z,7.15
2023-03-18T23:59:36.682Z,8.50
